Time;durP1;ratioP1;P1;durP2;ratioP2;P2;SDS_P1;SDS_P2;PMS_P1;PMS_P2;Temp;Humidity;BMP_temperature;BMP_pressure;BME280_temperature;BME280_humidity;BME280_pressure;Samples;Min_cycle;Max_cycle;Signal;HPM_P1;HPM_P2
2023/07/16 00:01:48;;;;;;;8.68;2.92;;;;;;;;;;4907746;29;20043;-63
2023/07/16 00:04:14;;;;;;;10.02;2.55;;;;;;;;;;4907501;29;20060;-64
2023/07/16 00:06:40;;;;;;;7.78;2.38;;;;;;;;;;4907244;29;20044;-63
2023/07/16 00:09:06;;;;;;;13.07;2.20;;;;;;;;;;4907852;29;20051;-63
2023/07/16 00:11:32;;;;;;;10.45;2.40;;;;;;;;;;4890831;29;20040;-63
2023/07/16 00:13:58;;;;;;;10.23;2.78;;;;;;;;;;4907992;29;20038;-63
2023/07/16 00:16:24;;;;;;;13.43;3.00;;;;;;;;;;4907160;29;20032;-63
2023/07/16 00:18:50;;;;;;;12.07;3.08;;;;;;;;;;4908177;29;20106;-63
2023/07/16 00:21:16;;;;;;;12.13;3.17;;;;;;;;;;4907206;29;20040;-63
2023/07/16 00:23:42;;;;;;;7.28;2.47;;;;;;;;;;4906851;29;20028;-64
2023/07/16 00:26:08;;;;;;;10.45;2.88;;;;;;;;;;4908085;29;20083;-63
2023/07/16 00:28:34;;;;;;;11.95;2.75;;;;;;;;;;4907256;29;20036;-63
2023/07/16 00:31:01;;;;;;;10.63;2.88;;;;;;;;;;4907757;29;20044;-63
2023/07/16 00:33:27;;;;;;;9.23;2.72;;;;;;;;;;4907608;29;20043;-63
2023/07/16 00:35:53;;;;;;;10.63;3.40;;;;;;;;;;4907590;29;20035;-63
2023/07/16 00:38:19;;;;;;;13.13;3.20;;;;;;;;;;4906754;29;20040;-63
2023/07/16 00:40:46;;;;;;;12.18;2.58;;;;;;;;;;4907518;29;20044;-63
2023/07/16 00:43:12;;;;;;;8.98;3.08;;;;;;;;;;4906257;29;20040;-63
2023/07/16 00:45:40;;;;;;;9.80;3.25;;;;;;;;;;4907487;29;20043;-63
2023/07/16 00:48:06;;;;;;;10.60;3.20;;;;;;;;;;4907708;29;20036;-63
2023/07/16 00:50:34;;;;;;;8.20;2.75;;;;;;;;;;4907191;29;20752;-63
2023/07/16 00:53:03;;;;;;;8.75;2.70;;;;;;;;;;4906805;29;20074;-63
2023/07/16 00:55:30;;;;;;;9.65;2.97;;;;;;;;;;4906567;29;20028;-63
2023/07/16 00:58:02;;;;;;;15.43;3.33;;;;;;;;;;4907623;29;20063;-63
2023/07/16 01:00:28;;;;;;;9.27;2.80;;;;;;;;;;4907551;29;20032;-63
2023/07/16 01:02:54;;;;;;;10.68;3.00;;;;;;;;;;4907712;29;20631;-63
2023/07/16 01:05:22;;;;;;;10.07;3.13;;;;;;;;;;4906608;29;20790;-63
2023/07/16 01:07:52;;;;;;;12.68;3.08;;;;;;;;;;4906783;29;20118;-63
2023/07/16 01:10:18;;;;;;;11.65;3.55;;;;;;;;;;4906765;29;20048;-63
2023/07/16 01:12:45;;;;;;;8.70;3.03;;;;;;;;;;4906834;29;20039;-63
2023/07/16 01:15:11;;;;;;;11.52;2.95;;;;;;;;;;4889000;29;21789;-63
2023/07/16 01:17:37;;;;;;;12.70;3.30;;;;;;;;;;4907050;29;20763;-63
2023/07/16 01:20:05;;;;;;;10.95;2.80;;;;;;;;;;4889626;29;20438;-63
2023/07/16 01:22:31;;;;;;;11.35;3.35;;;;;;;;;;4905548;29;20040;-63
2023/07/16 01:25:06;;;;;;;12.38;3.42;;;;;;;;;;4889610;29;20642;-63
2023/07/16 01:27:41;;;;;;;11.32;3.03;;;;;;;;;;4906294;29;20035;-63
2023/07/16 01:30:12;;;;;;;14.80;3.20;;;;;;;;;;4906866;29;20034;-63
2023/07/16 01:32:39;;;;;;;9.60;3.35;;;;;;;;;;4907261;29;20115;-63
2023/07/16 01:35:05;;;;;;;12.20;3.08;;;;;;;;;;4906484;29;20036;-63
2023/07/16 01:37:32;;;;;;;11.85;2.65;;;;;;;;;;4904715;29;20032;-63
2023/07/16 01:39:58;;;;;;;11.75;2.83;;;;;;;;;;4906231;29;20098;-63
2023/07/16 01:42:24;;;;;;;10.45;3.28;;;;;;;;;;4906286;29;20138;-63
2023/07/16 01:44:50;;;;;;;16.40;2.70;;;;;;;;;;4907234;29;20035;-63
2023/07/16 01:47:25;;;;;;;10.98;3.78;;;;;;;;;;4907242;29;20040;-63
2023/07/16 01:49:51;;;;;;;9.93;3.08;;;;;;;;;;4906842;29;20044;-63
2023/07/16 01:52:17;;;;;;;8.25;3.03;;;;;;;;;;4907474;29;20071;-63
2023/07/16 01:54:43;;;;;;;10.88;3.28;;;;;;;;;;4906520;29;20032;-63
2023/07/16 01:57:09;;;;;;;7.90;2.63;;;;;;;;;;4906024;29;20032;-63
2023/07/16 01:59:35;;;;;;;9.32;2.95;;;;;;;;;;4906575;29;20115;-63
2023/07/16 02:02:01;;;;;;;12.98;2.72;;;;;;;;;;4906501;29;21185;-63
2023/07/16 02:04:27;;;;;;;6.57;2.10;;;;;;;;;;4907546;29;20587;-63
2023/07/16 02:06:53;;;;;;;8.13;2.30;;;;;;;;;;4907225;29;20115;-63
2023/07/16 02:09:19;;;;;;;10.10;2.55;;;;;;;;;;4906689;29;20031;-63
2023/07/16 02:11:45;;;;;;;12.30;3.00;;;;;;;;;;4906756;29;20036;-63
2023/07/16 02:14:13;;;;;;;13.10;4.22;;;;;;;;;;4906651;29;20040;-63
2023/07/16 02:16:39;;;;;;;9.70;2.30;;;;;;;;;;4906658;29;20138;-63
2023/07/16 02:19:05;;;;;;;9.05;2.63;;;;;;;;;;4907003;29;20027;-63
2023/07/16 02:21:31;;;;;;;10.55;2.60;;;;;;;;;;4906887;29;20089;-63
2023/07/16 02:23:57;;;;;;;8.70;2.65;;;;;;;;;;4906048;29;20036;-64
2023/07/16 02:26:23;;;;;;;8.38;2.67;;;;;;;;;;4906913;29;20085;-63
2023/07/16 02:28:49;;;;;;;9.82;2.58;;;;;;;;;;4909496;29;20043;-63
2023/07/16 02:31:15;;;;;;;9.98;2.95;;;;;;;;;;4910058;29;22035;-63
2023/07/16 02:33:41;;;;;;;8.55;3.63;;;;;;;;;;4909205;29;21151;-63
2023/07/16 02:36:07;;;;;;;8.15;2.85;;;;;;;;;;4909740;29;20501;-63
2023/07/16 02:38:33;;;;;;;7.13;2.78;;;;;;;;;;4910225;29;20079;-63
2023/07/16 02:40:59;;;;;;;9.75;3.17;;;;;;;;;;4909964;29;20035;-63
2023/07/16 02:43:25;;;;;;;9.38;2.42;;;;;;;;;;4909309;29;20210;-63
2023/07/16 02:45:51;;;;;;;9.68;3.20;;;;;;;;;;4909252;29;20032;-63
2023/07/16 02:48:18;;;;;;;9.55;3.28;;;;;;;;;;4891850;29;20040;-63
2023/07/16 02:50:44;;;;;;;9.27;3.30;;;;;;;;;;4909589;29;20036;-63
2023/07/16 02:53:10;;;;;;;8.95;3.30;;;;;;;;;;4909988;29;20044;-63
2023/07/16 02:55:36;;;;;;;10.45;3.15;;;;;;;;;;4908660;29;20032;-63
2023/07/16 02:58:05;;;;;;;9.80;3.65;;;;;;;;;;4909788;29;20033;-63
2023/07/16 03:00:31;;;;;;;10.25;3.20;;;;;;;;;;4909073;29;20039;-63
2023/07/16 03:03:01;;;;;;;10.82;3.25;;;;;;;;;;4909432;29;20957;-63
2023/07/16 03:05:27;;;;;;;10.35;3.60;;;;;;;;;;4909623;29;20047;-63
2023/07/16 03:07:53;;;;;;;8.88;3.38;;;;;;;;;;4909398;29;20036;-63
2023/07/16 03:10:20;;;;;;;10.13;3.47;;;;;;;;;;4909436;29;20160;-64
2023/07/16 03:12:46;;;;;;;9.93;3.05;;;;;;;;;;4909033;29;20090;-63
2023/07/16 03:15:12;;;;;;;10.77;3.40;;;;;;;;;;4892183;29;20079;-64
2023/07/16 03:17:38;;;;;;;9.63;3.00;;;;;;;;;;4909283;29;20037;-64
2023/07/16 03:20:05;;;;;;;10.27;3.72;;;;;;;;;;4909269;29;20035;-64
2023/07/16 03:22:31;;;;;;;13.35;4.07;;;;;;;;;;4908614;29;21142;-64
2023/07/16 03:24:57;;;;;;;8.73;3.65;;;;;;;;;;4908809;29;20161;-64
2023/07/16 03:27:23;;;;;;;9.05;3.40;;;;;;;;;;4909090;29;20115;-63
2023/07/16 03:29:49;;;;;;;9.15;3.40;;;;;;;;;;4909385;29;20049;-64
2023/07/16 03:32:16;;;;;;;9.20;3.92;;;;;;;;;;4908810;29;20038;-64
2023/07/16 03:34:42;;;;;;;7.90;3.67;;;;;;;;;;4908327;29;20581;-64
2023/07/16 03:37:08;;;;;;;12.93;3.75;;;;;;;;;;4908665;29;20059;-63
2023/07/16 03:39:34;;;;;;;10.00;4.18;;;;;;;;;;4907821;29;20036;-63
2023/07/16 03:42:00;;;;;;;12.55;3.67;;;;;;;;;;4908782;29;20043;-64
2023/07/16 03:44:26;;;;;;;8.68;3.88;;;;;;;;;;4908475;29;20039;-63
2023/07/16 03:46:52;;;;;;;9.00;3.67;;;;;;;;;;4908630;29;20044;-63
2023/07/16 03:49:18;;;;;;;12.23;3.75;;;;;;;;;;4908658;29;20036;-64
2023/07/16 03:51:44;;;;;;;14.50;3.90;;;;;;;;;;4907759;29;20039;-63
2023/07/16 03:54:10;;;;;;;10.77;4.10;;;;;;;;;;4908294;29;20091;-63
2023/07/16 03:56:36;;;;;;;12.40;3.80;;;;;;;;;;4908622;29;20036;-63
2023/07/16 03:59:02;;;;;;;9.18;4.15;;;;;;;;;;4908572;29;20877;-63
2023/07/16 04:01:28;;;;;;;9.50;4.30;;;;;;;;;;4908699;29;20666;-63
2023/07/16 04:03:54;;;;;;;13.88;4.10;;;;;;;;;;4908600;29;20577;-63
2023/07/16 04:06:20;;;;;;;11.35;3.95;;;;;;;;;;4907624;29;20860;-63
2023/07/16 04:08:46;;;;;;;10.30;4.88;;;;;;;;;;4907903;29;20082;-63
2023/07/16 04:11:12;;;;;;;10.85;4.07;;;;;;;;;;4908182;29;20036;-63
2023/07/16 04:13:38;;;;;;;9.80;4.20;;;;;;;;;;4908018;29;20055;-64
2023/07/16 04:16:04;;;;;;;10.70;4.00;;;;;;;;;;4908822;29;20122;-64
2023/07/16 04:18:31;;;;;;;17.10;4.72;;;;;;;;;;4908525;29;20609;-63
2023/07/16 04:20:57;;;;;;;9.38;4.10;;;;;;;;;;4907675;29;21879;-64
2023/07/16 04:23:23;;;;;;;11.48;4.30;;;;;;;;;;4908460;29;20135;-63
2023/07/16 04:25:53;;;;;;;11.18;4.10;;;;;;;;;;4907433;29;20444;-63
2023/07/16 04:28:19;;;;;;;11.10;4.15;;;;;;;;;;4908606;29;21742;-63
2023/07/16 04:30:45;;;;;;;15.50;4.00;;;;;;;;;;4908043;29;21964;-63
2023/07/16 04:33:11;;;;;;;12.07;4.32;;;;;;;;;;4907951;29;20517;-63
2023/07/16 04:35:37;;;;;;;11.82;4.60;;;;;;;;;;4908344;29;20666;-63
2023/07/16 04:38:03;;;;;;;13.75;4.90;;;;;;;;;;4907862;29;20550;-63
2023/07/16 04:40:30;;;;;;;10.10;4.72;;;;;;;;;;4908499;29;20722;-63
2023/07/16 04:42:56;;;;;;;11.88;5.10;;;;;;;;;;4907997;29;20121;-63
2023/07/16 04:45:22;;;;;;;10.40;4.75;;;;;;;;;;4908111;29;20127;-63
2023/07/16 04:47:48;;;;;;;11.45;4.97;;;;;;;;;;4907993;29;20050;-63
2023/07/16 04:50:14;;;;;;;12.43;5.07;;;;;;;;;;4890260;29;20453;-63
2023/07/16 04:52:40;;;;;;;10.48;4.35;;;;;;;;;;4908056;29;20042;-63
2023/07/16 04:55:06;;;;;;;10.52;5.03;;;;;;;;;;4906436;29;20583;-63
2023/07/16 04:57:33;;;;;;;15.20;4.70;;;;;;;;;;4907793;29;20045;-63
2023/07/16 04:59:59;;;;;;;12.15;4.63;;;;;;;;;;4890271;29;20056;-63
2023/07/16 05:02:25;;;;;;;9.38;4.43;;;;;;;;;;4907614;29;21067;-63
2023/07/16 05:04:51;;;;;;;10.70;4.80;;;;;;;;;;4907498;29;20551;-63
2023/07/16 05:07:17;;;;;;;10.77;4.57;;;;;;;;;;4907603;29;20060;-63
2023/07/16 05:09:43;;;;;;;10.43;4.90;;;;;;;;;;4907200;29;20039;-63
2023/07/16 05:12:10;;;;;;;11.68;4.55;;;;;;;;;;4907372;29;20047;-63
2023/07/16 05:14:44;;;;;;;14.68;5.07;;;;;;;;;;4907413;29;21007;-63
2023/07/16 05:17:10;;;;;;;13.95;4.80;;;;;;;;;;4906961;29;20042;-63
2023/07/16 05:19:36;;;;;;;12.23;4.60;;;;;;;;;;4907870;29;20533;-63
2023/07/16 05:22:03;;;;;;;10.18;4.22;;;;;;;;;;4907187;29;20039;-63
2023/07/16 05:24:29;;;;;;;12.18;5.28;;;;;;;;;;4907285;29;20086;-63
2023/07/16 05:26:55;;;;;;;16.45;4.80;;;;;;;;;;4907369;29;20035;-63
2023/07/16 05:29:21;;;;;;;12.27;4.32;;;;;;;;;;4906406;29;20059;-63
2023/07/16 05:31:47;;;;;;;11.57;4.13;;;;;;;;;;4907458;29;20028;-63
2023/07/16 05:34:13;;;;;;;11.00;4.15;;;;;;;;;;4907360;29;20039;-63
2023/07/16 05:36:40;;;;;;;12.20;4.10;;;;;;;;;;4907156;29;20184;-63
2023/07/16 05:39:06;;;;;;;8.57;3.42;;;;;;;;;;4907756;29;20028;-63
2023/07/16 05:41:32;;;;;;;10.98;4.53;;;;;;;;;;4907714;29;20036;-63
2023/07/16 05:43:58;;;;;;;9.93;4.03;;;;;;;;;;4888031;29;20035;-63
2023/07/16 05:46:24;;;;;;;8.95;4.30;;;;;;;;;;4907130;29;20134;-63
2023/07/16 05:48:50;;;;;;;9.15;3.97;;;;;;;;;;4907612;29;20043;-63
2023/07/16 05:51:16;;;;;;;10.82;3.55;;;;;;;;;;4906957;29;20491;-63
2023/07/16 05:53:42;;;;;;;12.10;4.25;;;;;;;;;;4907303;29;20092;-63
2023/07/16 05:56:08;;;;;;;11.15;4.15;;;;;;;;;;4906713;29;20024;-63
2023/07/16 05:58:35;;;;;;;8.32;3.70;;;;;;;;;;4906234;29;20447;-63
2023/07/16 06:01:01;;;;;;;12.15;4.03;;;;;;;;;;4907177;29;21231;-63
2023/07/16 06:03:27;;;;;;;8.57;3.53;;;;;;;;;;4909936;29;20036;-63
2023/07/16 06:05:53;;;;;;;8.50;3.88;;;;;;;;;;4910874;29;20036;-63
2023/07/16 06:08:20;;;;;;;10.68;3.28;;;;;;;;;;4910770;29;21914;-63
2023/07/16 06:10:46;;;;;;;10.40;3.53;;;;;;;;;;4910471;29;20079;-63
2023/07/16 06:13:12;;;;;;;14.63;4.15;;;;;;;;;;4911133;29;20036;-63
2023/07/16 06:15:38;;;;;;;10.82;3.58;;;;;;;;;;4910268;29;20032;-63
2023/07/16 06:18:04;;;;;;;8.93;3.65;;;;;;;;;;4910723;29;20551;-63
2023/07/16 06:20:30;;;;;;;7.65;3.50;;;;;;;;;;4910236;29;21768;-63
2023/07/16 06:22:56;;;;;;;13.90;5.18;;;;;;;;;;4910164;29;20697;-63
2023/07/16 06:25:22;;;;;;;16.15;4.68;;;;;;;;;;4909769;29;20103;-64
2023/07/16 06:27:48;;;;;;;11.93;3.63;;;;;;;;;;4909549;29;20399;-64
2023/07/16 06:30:14;;;;;;;9.48;3.95;;;;;;;;;;4909858;29;20031;-63
2023/07/16 06:32:40;;;;;;;10.90;4.63;;;;;;;;;;4908771;29;20159;-64
2023/07/16 06:35:06;;;;;;;12.63;4.13;;;;;;;;;;4909333;29;20072;-63
2023/07/16 06:37:32;;;;;;;10.07;4.80;;;;;;;;;;4892952;29;20551;-63
2023/07/16 06:39:59;;;;;;;10.32;3.78;;;;;;;;;;4909183;29;20134;-63
2023/07/16 06:42:25;;;;;;;9.70;4.68;;;;;;;;;;4909440;29;20039;-63
2023/07/16 06:44:52;;;;;;;14.75;5.15;;;;;;;;;;4909375;29;20036;-63
2023/07/16 06:47:18;;;;;;;10.70;3.88;;;;;;;;;;4909638;29;20036;-63
2023/07/16 06:49:44;;;;;;;10.43;4.03;;;;;;;;;;4909193;29;20043;-63
2023/07/16 06:52:19;;;;;;;13.20;5.35;;;;;;;;;;4909437;29;20045;-63
2023/07/16 06:54:45;;;;;;;9.85;4.30;;;;;;;;;;4908651;29;20055;-63
2023/07/16 06:57:11;;;;;;;11.93;5.00;;;;;;;;;;4909564;29;20472;-63
2023/07/16 06:59:37;;;;;;;9.40;4.57;;;;;;;;;;4909906;29;20148;-64
2023/07/16 07:02:03;;;;;;;9.77;4.93;;;;;;;;;;4909346;29;20071;-64
2023/07/16 07:04:29;;;;;;;14.15;4.45;;;;;;;;;;4909432;29;20040;-64
2023/07/16 07:06:55;;;;;;;12.30;4.75;;;;;;;;;;4909372;29;20225;-64
2023/07/16 07:09:21;;;;;;;14.77;5.10;;;;;;;;;;4909479;29;20040;-64
2023/07/16 07:11:47;;;;;;;11.85;5.32;;;;;;;;;;4910070;29;20038;-63
2023/07/16 07:14:13;;;;;;;13.70;4.38;;;;;;;;;;4909319;29;20098;-63
2023/07/16 07:16:39;;;;;;;11.52;3.95;;;;;;;;;;4908752;29;20028;-64
2023/07/16 07:19:06;;;;;;;9.65;4.25;;;;;;;;;;4909615;29;20044;-64
2023/07/16 07:21:32;;;;;;;13.40;5.07;;;;;;;;;;4909284;29;20382;-63
2023/07/16 07:23:58;;;;;;;11.18;4.55;;;;;;;;;;4888205;29;20126;-63
2023/07/16 07:26:25;;;;;;;10.30;5.00;;;;;;;;;;4907845;29;20047;-63
2023/07/16 07:28:52;;;;;;;11.23;4.47;;;;;;;;;;4908092;29;20046;-64
2023/07/16 07:31:18;;;;;;;13.65;5.18;;;;;;;;;;4908558;29;20031;-63
2023/07/16 07:33:44;;;;;;;10.43;5.03;;;;;;;;;;4908250;29;20043;-63
2023/07/16 07:36:10;;;;;;;11.35;4.70;;;;;;;;;;4908142;29;20119;-64
2023/07/16 07:38:36;;;;;;;9.50;4.47;;;;;;;;;;4908908;29;20047;-64
2023/07/16 07:41:02;;;;;;;9.68;4.68;;;;;;;;;;4906856;29;20050;-64
2023/07/16 07:43:28;;;;;;;10.00;4.72;;;;;;;;;;4908908;29;20143;-64
2023/07/16 07:45:54;;;;;;;12.63;5.00;;;;;;;;;;4907909;29;20063;-63
2023/07/16 07:48:21;;;;;;;11.05;4.70;;;;;;;;;;4908638;29;20043;-64
2023/07/16 07:50:47;;;;;;;13.13;4.78;;;;;;;;;;4907350;29;20035;-63
2023/07/16 07:53:18;;;;;;;11.30;4.28;;;;;;;;;;4907816;29;20042;-64
2023/07/16 07:55:45;;;;;;;12.73;5.38;;;;;;;;;;4907496;29;20147;-64
2023/07/16 07:58:11;;;;;;;11.50;4.53;;;;;;;;;;4907509;29;21046;-63
2023/07/16 08:00:37;;;;;;;12.15;4.90;;;;;;;;;;4907710;29;20070;-64
2023/07/16 08:03:03;;;;;;;10.07;4.43;;;;;;;;;;4906161;29;20087;-63
2023/07/16 08:05:29;;;;;;;10.55;4.35;;;;;;;;;;4907559;29;20058;-64
2023/07/16 08:07:55;;;;;;;12.93;4.57;;;;;;;;;;4907804;29;20103;-64
2023/07/16 08:10:22;;;;;;;11.15;4.80;;;;;;;;;;4907026;29;20055;-63
2023/07/16 08:12:48;;;;;;;10.95;3.97;;;;;;;;;;4906710;29;20070;-63
2023/07/16 08:15:14;;;;;;;9.55;3.92;;;;;;;;;;4907082;29;20064;-63
2023/07/16 08:17:44;;;;;;;9.35;4.70;;;;;;;;;;4907598;29;20036;-63
2023/07/16 08:20:10;;;;;;;10.13;4.10;;;;;;;;;;4907880;29;20122;-63
2023/07/16 08:22:36;;;;;;;11.73;4.82;;;;;;;;;;4907041;29;20500;-63
2023/07/16 08:25:03;;;;;;;11.25;4.45;;;;;;;;;;4905875;29;20044;-63
2023/07/16 08:27:29;;;;;;;9.40;4.78;;;;;;;;;;4907077;29;20067;-63
2023/07/16 08:29:55;;;;;;;10.80;4.05;;;;;;;;;;4906431;29;20524;-64
2023/07/16 08:32:23;;;;;;;12.75;5.00;;;;;;;;;;4907996;29;20559;-64
2023/07/16 08:34:49;;;;;;;9.88;4.78;;;;;;;;;;4906752;29;20031;-64
2023/07/16 08:37:15;;;;;;;10.98;5.00;;;;;;;;;;4905400;29;20048;-64
2023/07/16 08:39:41;;;;;;;11.65;5.40;;;;;;;;;;4888784;29;20031;-64
2023/07/16 08:42:10;;;;;;;12.18;5.28;;;;;;;;;;4906433;29;20056;-64
2023/07/16 08:44:38;;;;;;;11.60;5.22;;;;;;;;;;4907563;29;20039;-64
2023/07/16 08:47:05;;;;;;;10.55;5.25;;;;;;;;;;4906853;29;20150;-64
2023/07/16 08:49:31;;;;;;;10.10;4.50;;;;;;;;;;4907250;29;20035;-64
2023/07/16 08:51:57;;;;;;;11.88;5.32;;;;;;;;;;4907551;29;20111;-64
2023/07/16 08:54:25;;;;;;;16.55;4.70;;;;;;;;;;4906319;29;20043;-64
2023/07/16 08:56:52;;;;;;;14.32;5.07;;;;;;;;;;4907777;29;21026;-64
2023/07/16 08:59:18;;;;;;;11.60;5.00;;;;;;;;;;4889039;29;20043;-63
2023/07/16 09:01:47;;;;;;;14.15;4.97;;;;;;;;;;4898281;29;20030;-64
2023/07/16 09:04:13;;;;;;;14.30;5.53;;;;;;;;;;4898027;29;20036;-65
2023/07/16 09:06:39;;;;;;;11.52;4.95;;;;;;;;;;4897824;29;20035;-64
2023/07/16 09:09:05;;;;;;;10.63;5.20;;;;;;;;;;4897665;29;20039;-63
2023/07/16 09:11:31;;;;;;;13.93;5.55;;;;;;;;;;4897455;29;20550;-64
2023/07/16 09:13:57;;;;;;;10.05;4.43;;;;;;;;;;4898041;29;20074;-63
2023/07/16 09:16:23;;;;;;;13.95;4.35;;;;;;;;;;4898162;29;20749;-63
2023/07/16 09:18:49;;;;;;;11.70;4.72;;;;;;;;;;4899450;29;20040;-63
2023/07/16 09:21:15;;;;;;;11.25;4.20;;;;;;;;;;4895738;29;20032;-63
2023/07/16 09:23:42;;;;;;;8.50;4.07;;;;;;;;;;4898140;29;20119;-63
2023/07/16 09:26:08;;;;;;;11.98;4.70;;;;;;;;;;4897520;29;20076;-63
2023/07/16 09:28:34;;;;;;;17.15;4.60;;;;;;;;;;4898803;29;20040;-63
2023/07/16 09:31:09;;;;;;;10.07;4.50;;;;;;;;;;4898705;29;20035;-63
2023/07/16 09:33:35;;;;;;;11.27;4.13;;;;;;;;;;4898345;29;20053;-63
2023/07/16 09:36:02;;;;;;;9.00;4.00;;;;;;;;;;4899078;29;20051;-63
2023/07/16 09:38:29;;;;;;;11.05;3.78;;;;;;;;;;4902832;29;20027;-63
2023/07/16 09:40:56;;;;;;;9.18;4.32;;;;;;;;;;4901946;29;20150;-63
2023/07/16 09:43:22;;;;;;;11.40;4.38;;;;;;;;;;4903430;29;20035;-63
2023/07/16 09:45:48;;;;;;;9.65;3.92;;;;;;;;;;4903301;29;20531;-64
2023/07/16 09:48:15;;;;;;;13.35;4.65;;;;;;;;;;4902210;29;20040;-63
2023/07/16 09:50:45;;;;;;;10.45;4.00;;;;;;;;;;4903182;29;20472;-63
2023/07/16 09:53:12;;;;;;;15.00;5.82;;;;;;;;;;4900690;29;20036;-64
2023/07/16 09:55:38;;;;;;;10.20;4.32;;;;;;;;;;4884411;29;20040;-63
2023/07/16 09:58:07;;;;;;;13.48;5.07;;;;;;;;;;4902316;29;20075;-63
2023/07/16 10:00:33;;;;;;;7.78;3.80;;;;;;;;;;4900919;29;20032;-63
2023/07/16 10:03:00;;;;;;;8.73;3.80;;;;;;;;;;4901541;29;20036;-63
2023/07/16 10:05:26;;;;;;;9.70;3.75;;;;;;;;;;4901671;29;20380;-63
2023/07/16 10:07:53;;;;;;;9.95;4.05;;;;;;;;;;4902083;29;20039;-63
2023/07/16 10:10:21;;;;;;;11.52;4.28;;;;;;;;;;4900654;29;20040;-64
2023/07/16 10:12:57;;;;;;;12.07;4.30;;;;;;;;;;4884819;29;20036;-63
2023/07/16 10:15:30;;;;;;;8.85;3.78;;;;;;;;;;4902819;29;20098;-63
2023/07/16 10:17:56;;;;;;;10.13;3.88;;;;;;;;;;4903362;29;20032;-63
2023/07/16 10:20:49;;;;;;;8.50;3.80;;;;;;;;;;4902411;29;20044;-63
2023/07/16 10:23:16;;;;;;;9.70;3.75;;;;;;;;;;4899125;29;21378;-63
2023/07/16 10:26:05;;;;;;;10.13;3.65;;;;;;;;;;4902211;29;20063;-63
2023/07/16 10:28:32;;;;;;;8.90;4.20;;;;;;;;;;4899782;29;20102;-64
2023/07/16 10:30:58;;;;;;;13.25;4.78;;;;;;;;;;4902336;29;20031;-64
2023/07/16 10:33:24;;;;;;;11.60;4.05;;;;;;;;;;4902225;29;20036;-64
2023/07/16 10:35:50;;;;;;;9.13;3.80;;;;;;;;;;4901288;29;20052;-63
2023/07/16 10:38:16;;;;;;;10.32;4.20;;;;;;;;;;4900775;29;20036;-65
2023/07/16 10:40:43;;;;;;;10.57;4.30;;;;;;;;;;4901772;29;20036;-65
2023/07/16 10:43:10;;;;;;;9.27;4.07;;;;;;;;;;4900482;29;20451;-65
2023/07/16 10:45:36;;;;;;;10.77;4.18;;;;;;;;;;4898917;29;20474;-64
2023/07/16 10:48:02;;;;;;;10.15;4.38;;;;;;;;;;4899461;29;20035;-64
2023/07/16 10:50:28;;;;;;;11.15;4.53;;;;;;;;;;4900843;29;20040;-64
2023/07/16 10:52:55;;;;;;;11.75;4.63;;;;;;;;;;4901217;29;20130;-64
2023/07/16 10:55:21;;;;;;;8.73;3.88;;;;;;;;;;4901830;29;20127;-65
2023/07/16 10:57:50;;;;;;;12.70;4.32;;;;;;;;;;4901859;29;20100;-65
2023/07/16 11:00:17;;;;;;;10.82;3.90;;;;;;;;;;4901185;29;20028;-64
2023/07/16 11:02:44;;;;;;;11.38;4.45;;;;;;;;;;4901486;29;20729;-65
2023/07/16 11:05:13;;;;;;;9.88;3.65;;;;;;;;;;4901660;29;20047;-64
2023/07/16 11:07:49;;;;;;;9.13;4.00;;;;;;;;;;4902557;29;20028;-64
2023/07/16 11:10:16;;;;;;;21.35;3.92;;;;;;;;;;4902483;29;20036;-64
2023/07/16 11:12:43;;;;;;;8.35;3.15;;;;;;;;;;4901207;29;20047;-64
2023/07/16 11:15:09;;;;;;;9.35;3.53;;;;;;;;;;4901968;29;20213;-64
2023/07/16 11:17:37;;;;;;;9.55;3.90;;;;;;;;;;4900982;29;20040;-64
2023/07/16 11:20:04;;;;;;;9.50;4.03;;;;;;;;;;4900271;29;20043;-64
2023/07/16 11:22:31;;;;;;;11.30;4.18;;;;;;;;;;4899611;29;20631;-64
2023/07/16 11:24:57;;;;;;;11.35;3.88;;;;;;;;;;4900703;29;20032;-64
2023/07/16 11:27:27;;;;;;;9.13;3.67;;;;;;;;;;4901794;29;20057;-64
2023/07/16 11:29:54;;;;;;;9.77;3.90;;;;;;;;;;4901295;29;20078;-65
2023/07/16 11:32:46;;;;;;;13.25;4.28;;;;;;;;;;4896674;29;20047;-65
2023/07/16 11:35:16;;;;;;;10.25;3.53;;;;;;;;;;4896363;29;20047;-65
2023/07/16 11:37:42;;;;;;;11.73;4.10;;;;;;;;;;4900239;29;20147;-64
2023/07/16 11:40:10;;;;;;;11.05;3.78;;;;;;;;;;4898583;29;20024;-64
2023/07/16 11:42:37;;;;;;;10.15;4.07;;;;;;;;;;4901205;29;20502;-64
2023/07/16 11:45:04;;;;;;;8.45;3.22;;;;;;;;;;4900883;29;20047;-64
2023/07/16 11:47:31;;;;;;;9.55;3.88;;;;;;;;;;4900067;29;20040;-65
2023/07/16 11:49:57;;;;;;;7.35;3.38;;;;;;;;;;4900867;29;20051;-65
2023/07/16 11:52:24;;;;;;;11.07;3.58;;;;;;;;;;4900114;29;20047;-64
2023/07/16 11:54:52;;;;;;;9.80;4.03;;;;;;;;;;4900627;29;20079;-65
2023/07/16 11:57:18;;;;;;;12.30;4.38;;;;;;;;;;4900445;29;20040;-64
2023/07/16 11:59:44;;;;;;;10.90;4.18;;;;;;;;;;4899521;29;20594;-64
2023/07/16 12:02:10;;;;;;;13.60;4.65;;;;;;;;;;4900717;29;21027;-64
2023/07/16 12:04:36;;;;;;;9.60;4.25;;;;;;;;;;4900366;29;20050;-64
2023/07/16 12:07:02;;;;;;;12.88;5.50;;;;;;;;;;4901453;29;20063;-64
2023/07/16 12:09:28;;;;;;;12.63;4.53;;;;;;;;;;4901825;29;20091;-64
2023/07/16 12:11:54;;;;;;;10.57;4.38;;;;;;;;;;4900899;29;20127;-64
2023/07/16 12:14:21;;;;;;;11.27;4.85;;;;;;;;;;4900372;29;20110;-64
2023/07/16 12:16:47;;;;;;;11.68;5.07;;;;;;;;;;4898798;29;20740;-64
2023/07/16 12:19:13;;;;;;;12.63;5.05;;;;;;;;;;4899099;29;20027;-64
2023/07/16 12:21:45;;;;;;;10.32;4.25;;;;;;;;;;5037083;27;20450;-64
2023/07/16 12:24:12;;;;;;;11.95;4.55;;;;;;;;;;5033934;28;20032;-65
2023/07/16 12:26:38;;;;;;;11.30;4.35;;;;;;;;;;5033552;28;20634;-65
2023/07/16 12:29:04;;;;;;;10.35;4.95;;;;;;;;;;5031613;28;20465;-65
2023/07/16 12:31:34;;;;;;;10.18;4.65;;;;;;;;;;5032972;28;20611;-65
2023/07/16 12:34:04;;;;;;;14.02;4.78;;;;;;;;;;5033378;28;20115;-65
2023/07/16 12:36:30;;;;;;;10.55;4.32;;;;;;;;;;5032965;28;20037;-65
2023/07/16 12:38:57;;;;;;;11.02;5.05;;;;;;;;;;5033719;28;20033;-65
2023/07/16 12:41:23;;;;;;;9.48;4.70;;;;;;;;;;5033139;28;20697;-65
2023/07/16 12:43:49;;;;;;;8.52;3.92;;;;;;;;;;5033844;28;20161;-65
2023/07/16 12:46:15;;;;;;;11.27;4.53;;;;;;;;;;5033027;28;20038;-65
2023/07/16 12:48:41;;;;;;;12.80;4.45;;;;;;;;;;5032135;28;20028;-65
2023/07/16 12:51:07;;;;;;;10.05;4.10;;;;;;;;;;5032794;28;20044;-65
2023/07/16 12:53:33;;;;;;;9.63;4.45;;;;;;;;;;5033637;28;20033;-65
2023/07/16 12:55:59;;;;;;;7.95;4.40;;;;;;;;;;5033374;28;20040;-64
2023/07/16 12:58:26;;;;;;;10.65;4.28;;;;;;;;;;5032830;28;20065;-64
2023/07/16 13:00:52;;;;;;;10.32;4.32;;;;;;;;;;5032058;28;20036;-65
2023/07/16 13:03:18;;;;;;;8.75;4.20;;;;;;;;;;5031462;28;20041;-65
2023/07/16 13:05:44;;;;;;;7.72;3.53;;;;;;;;;;5033025;28;21845;-65
2023/07/16 13:08:11;;;;;;;9.13;3.78;;;;;;;;;;5032835;28;20029;-65
2023/07/16 13:10:37;;;;;;;8.32;3.92;;;;;;;;;;5032404;28;20055;-65
2023/07/16 13:13:03;;;;;;;11.20;3.88;;;;;;;;;;5033461;28;20118;-65
2023/07/16 13:15:29;;;;;;;10.32;4.85;;;;;;;;;;5032186;28;20029;-65
2023/07/16 13:17:55;;;;;;;15.05;4.80;;;;;;;;;;5032345;28;20040;-65
2023/07/16 13:20:23;;;;;;;12.77;5.20;;;;;;;;;;5033084;28;20048;-65
2023/07/16 13:22:49;;;;;;;12.38;4.43;;;;;;;;;;5032697;28;20033;-65
2023/07/16 13:25:15;;;;;;;16.83;5.10;;;;;;;;;;5031224;28;20028;-65
2023/07/16 13:27:41;;;;;;;16.00;5.05;;;;;;;;;;5031869;28;20067;-65
2023/07/16 13:30:08;;;;;;;12.85;4.03;;;;;;;;;;5032598;28;20047;-65
2023/07/16 13:32:34;;;;;;;10.23;3.55;;;;;;;;;;5020122;28;20463;-65
2023/07/16 13:35:00;;;;;;;46.45;30.63;;;;;;;;;;5019676;28;20037;-65
2023/07/16 13:37:26;;;;;;;33.33;18.27;;;;;;;;;;5019629;28;20047;-65
2023/07/16 13:39:52;;;;;;;29.25;14.10;;;;;;;;;;5016724;28;20037;-65
2023/07/16 13:42:18;;;;;;;16.45;8.35;;;;;;;;;;5017178;28;20040;-65
2023/07/16 13:44:45;;;;;;;21.08;11.50;;;;;;;;;;5018726;28;20037;-65
2023/07/16 13:47:11;;;;;;;13.57;3.97;;;;;;;;;;5018269;28;20025;-65
2023/07/16 13:49:37;;;;;;;26.52;12.20;;;;;;;;;;5018432;28;20038;-65
2023/07/16 13:52:03;;;;;;;24.35;12.65;;;;;;;;;;5017950;28;20029;-65
2023/07/16 13:54:29;;;;;;;13.50;5.28;;;;;;;;;;5018376;28;20037;-65
2023/07/16 13:56:55;;;;;;;11.77;3.17;;;;;;;;;;5019204;28;20033;-65
2023/07/16 13:59:21;;;;;;;16.02;3.60;;;;;;;;;;5019047;28;20113;-65
2023/07/16 14:01:47;;;;;;;26.65;12.02;;;;;;;;;;5019196;28;21808;-65
2023/07/16 14:04:13;;;;;;;32.97;14.68;;;;;;;;;;5018849;28;20489;-65
2023/07/16 14:06:39;;;;;;;50.88;29.13;;;;;;;;;;5019245;28;20530;-65
2023/07/16 14:09:05;;;;;;;17.98;10.38;;;;;;;;;;5017541;28;21469;-65
2023/07/16 14:11:32;;;;;;;15.10;8.00;;;;;;;;;;5018382;28;20145;-65
2023/07/16 14:13:58;;;;;;;40.97;25.15;;;;;;;;;;5017395;28;20032;-65
2023/07/16 14:16:24;;;;;;;34.38;14.38;;;;;;;;;;5016754;28;20029;-66
2023/07/16 14:18:51;;;;;;;30.08;16.27;;;;;;;;;;5018066;28;20082;-65
2023/07/16 14:21:18;;;;;;;37.10;18.48;;;;;;;;;;5017066;28;20063;-65
2023/07/16 14:23:44;;;;;;;33.00;18.83;;;;;;;;;;5017796;28;20819;-66
2023/07/16 14:26:10;;;;;;;27.90;14.57;;;;;;;;;;5018108;28;20098;-65
2023/07/16 14:28:36;;;;;;;16.45;7.28;;;;;;;;;;5018029;28;20112;-65
2023/07/16 14:31:02;;;;;;;15.48;5.32;;;;;;;;;;5019130;28;20127;-65